createdAt,value
2018-07-04T00:02:24.785Z,65.48
2018-07-04T00:05:04.386Z,65.50
2018-07-04T00:07:43.852Z,67.02
2018-07-04T00:10:23.225Z,67.20
2018-07-04T00:13:02.927Z,67.74
2018-07-04T00:15:42.429Z,67.14
2018-07-04T00:18:22.025Z,67.31
2018-07-04T00:21:01.501Z,68.07
2018-07-04T00:23:40.941Z,67.94
2018-07-04T00:26:20.432Z,68.00
2018-07-04T00:28:59.979Z,67.83
2018-07-04T00:31:39.572Z,68.78
2018-07-04T00:34:19.107Z,68.01
2018-07-04T00:36:58.732Z,68.33
2018-07-04T00:39:38.357Z,68.45
2018-07-04T00:42:17.783Z,68.85
2018-07-04T00:44:57.372Z,68.41
2018-07-04T00:47:36.869Z,68.38
2018-07-04T00:50:16.512Z,67.59
2018-07-04T00:52:56.116Z,68.45
2018-07-04T00:55:35.661Z,67.56
2018-07-04T00:58:15.124Z,66.86
2018-07-04T01:00:54.576Z,67.12
2018-07-04T01:03:34.060Z,68.08
2018-07-04T01:06:13.680Z,67.91
2018-07-04T01:08:53.161Z,67.99
2018-07-04T01:11:32.781Z,68.89
2018-07-04T01:14:12.300Z,68.85
2018-07-04T01:16:51.876Z,69.86
2018-07-04T01:19:31.519Z,70.77
2018-07-04T01:22:10.980Z,70.22
2018-07-04T01:24:50.369Z,70.49
2018-07-04T01:27:29.787Z,70.57
2018-07-04T01:30:09.333Z,70.08
2018-07-04T01:32:49.021Z,70.73
2018-07-04T01:35:28.645Z,71.64
2018-07-04T01:38:08.245Z,70.78
2018-07-04T01:40:47.840Z,71.01
2018-07-04T01:43:27.532Z,71.65
2018-07-04T01:46:06.988Z,71.97
2018-07-04T01:48:46.484Z,73.42
2018-07-04T01:51:26.099Z,73.25
2018-07-04T01:54:05.696Z,72.13
2018-07-04T01:56:45.196Z,71.69
2018-07-04T01:59:24.783Z,71.88
2018-07-04T02:02:04.452Z,71.43
2018-07-04T02:04:43.913Z,71.97
2018-07-04T02:07:23.507Z,72.12
2018-07-04T02:10:03.131Z,71.68
2018-07-04T02:12:42.748Z,72.21
2018-07-04T02:15:22.161Z,71.77
2018-07-04T02:18:01.781Z,71.71
2018-07-04T02:20:41.423Z,71.60
2018-07-04T02:23:21.065Z,71.69
2018-07-04T02:26:00.636Z,71.95
2018-07-04T02:28:40.244Z,71.99
2018-07-04T02:31:19.752Z,72.73
2018-07-04T02:33:59.349Z,73.93
2018-07-04T02:36:38.960Z,74.78
2018-07-04T02:39:18.476Z,76.17
2018-07-04T02:41:58.133Z,77.62
2018-07-04T02:44:37.849Z,76.51
2018-07-04T02:47:23.031Z,76.39
2018-07-04T02:50:02.640Z,77.18
2018-07-04T02:52:42.317Z,76.33
2018-07-04T02:55:21.938Z,79.29
2018-07-04T02:58:01.549Z,80.98
2018-07-04T03:00:41.081Z,80.92
2018-07-04T03:03:20.662Z,81.27
2018-07-04T03:06:00.333Z,79.94
2018-07-04T03:08:39.744Z,79.68
2018-07-04T03:11:19.395Z,78.48
2018-07-04T03:13:59.045Z,78.64
2018-07-04T03:16:38.626Z,78.38
2018-07-04T03:19:18.207Z,78.34
2018-07-04T03:21:57.789Z,77.89
2018-07-04T03:24:37.172Z,78.07
2018-07-04T03:27:16.569Z,77.47
2018-07-04T03:29:56.104Z,76.94
2018-07-04T03:32:35.683Z,76.82
2018-07-04T03:35:15.256Z,76.99
2018-07-04T03:37:54.792Z,76.71
2018-07-04T03:40:34.412Z,76.46
2018-07-04T03:43:14.107Z,76.11
2018-07-04T03:45:53.575Z,77.15
2018-07-04T03:48:33.184Z,78.27
2018-07-04T03:51:12.929Z,79.09
2018-07-04T03:53:52.575Z,78.00
2018-07-04T03:56:32.082Z,78.24
2018-07-04T03:59:11.617Z,78.20
2018-07-04T04:01:50.867Z,79.60
2018-07-04T04:04:30.373Z,79.62
2018-07-04T04:07:09.792Z,79.43
2018-07-04T04:09:49.470Z,79.39
2018-07-04T04:12:29.156Z,79.71
2018-07-04T04:15:08.704Z,79.91
2018-07-04T04:17:48.320Z,80.36
2018-07-04T04:20:27.858Z,80.29
2018-07-04T04:23:07.380Z,79.46
2018-07-04T04:25:47.798Z,79.09
2018-07-04T04:28:27.204Z,78.64
2018-07-04T04:31:06.600Z,78.50
2018-07-04T04:33:46.259Z,78.09
2018-07-04T04:36:25.935Z,77.05
2018-07-04T04:39:05.526Z,77.38
2018-07-04T04:41:45.156Z,77.51
2018-07-04T04:44:24.718Z,77.21
2018-07-04T04:47:04.221Z,77.35
2018-07-04T04:49:43.592Z,77.33
2018-07-04T04:52:23.170Z,77.50
2018-07-04T04:55:02.802Z,78.13
2018-07-04T04:57:42.425Z,77.96
2018-07-04T05:00:21.982Z,78.05
2018-07-04T05:03:01.713Z,79.47
2018-07-04T05:05:41.116Z,79.63
2018-07-04T05:08:20.739Z,79.76
2018-07-04T05:11:00.131Z,78.40
2018-07-04T05:13:39.813Z,78.14
2018-07-04T05:16:19.507Z,78.08
2018-07-04T05:18:59.044Z,77.05
2018-07-04T05:21:38.644Z,70.06
2018-07-04T05:24:18.212Z,63.54
2018-07-04T05:26:57.715Z,57.74
2018-07-04T05:29:37.328Z,54.53
2018-07-04T05:32:16.708Z,51.58
2018-07-04T05:34:56.348Z,49.13
2018-07-04T05:37:35.760Z,47.06
2018-07-04T05:40:15.312Z,45.96
2018-07-04T05:42:54.873Z,45.11
2018-07-04T05:45:34.630Z,44.17
2018-07-04T05:48:14.170Z,41.86
2018-07-04T05:50:53.825Z,41.77
2018-07-04T05:53:33.255Z,40.84
2018-07-04T05:56:12.851Z,40.24
2018-07-04T05:58:52.581Z,37.41
2018-07-04T06:01:32.198Z,37.37
2018-07-04T06:04:11.590Z,35.18
2018-07-04T06:06:51.037Z,33.80
2018-07-04T06:09:30.569Z,32.87
2018-07-04T06:12:10.244Z,31.58
2018-07-04T06:14:49.824Z,31.84
2018-07-04T06:17:29.385Z,30.45
2018-07-04T06:20:09.277Z,30.70
2018-07-04T06:22:48.887Z,29.30
2018-07-04T06:25:28.431Z,29.94
2018-07-04T06:28:08.088Z,31.08
2018-07-04T06:30:47.576Z,32.79
2018-07-04T06:33:27.068Z,29.64
2018-07-04T06:36:06.710Z,29.34
2018-07-04T06:38:33.741Z,28.38
2018-07-04T06:41:00.809Z,26.91
2018-07-04T06:43:27.896Z,27.24
2018-07-04T06:45:54.929Z,27.11
2018-07-04T06:48:21.963Z,26.48
2018-07-04T06:50:49.091Z,26.37
2018-07-04T06:53:16.116Z,26.11
2018-07-04T06:55:43.185Z,25.33
2018-07-04T06:58:10.233Z,23.56
2018-07-04T07:00:37.301Z,23.55
2018-07-04T07:03:16.678Z,23.44
2018-07-04T07:05:56.101Z,22.18
2018-07-04T07:08:35.688Z,21.56
2018-07-04T07:11:15.272Z,21.48
2018-07-04T07:13:54.808Z,21.87
2018-07-04T07:16:34.372Z,22.48
2018-07-04T07:19:13.929Z,21.71
2018-07-04T07:21:53.473Z,21.12
2018-07-04T07:24:32.911Z,21.07
2018-07-04T07:27:12.571Z,21.33
2018-07-04T07:29:52.124Z,20.95
2018-07-04T07:32:31.590Z,21.26
2018-07-04T07:35:11.267Z,21.63
2018-07-04T07:37:50.804Z,21.40
2018-07-04T07:40:30.368Z,21.73
2018-07-04T07:43:09.890Z,23.43
2018-07-04T07:45:49.417Z,23.95
2018-07-04T07:48:28.908Z,22.69
2018-07-04T07:51:08.441Z,23.38
2018-07-04T07:53:48.116Z,23.28
2018-07-04T07:56:27.772Z,22.79
2018-07-04T07:59:07.297Z,23.62
2018-07-04T08:01:46.781Z,24.75
2018-07-04T08:04:26.298Z,23.87
2018-07-04T08:07:05.928Z,24.33
2018-07-04T08:09:45.472Z,23.08
2018-07-04T08:12:25.158Z,24.07
2018-07-04T08:15:04.733Z,24.80
2018-07-04T08:17:44.485Z,25.49
2018-07-04T08:20:23.959Z,24.79
2018-07-04T08:23:03.541Z,24.51
2018-07-04T08:25:42.980Z,25.46
2018-07-04T08:28:22.452Z,27.86
2018-07-04T08:31:02.001Z,26.11
2018-07-04T08:33:42.552Z,25.61
2018-07-04T08:36:22.258Z,26.04
2018-07-04T08:39:01.746Z,25.61
2018-07-04T08:41:41.032Z,25.82
2018-07-04T08:44:20.593Z,25.24
2018-07-04T08:47:00.145Z,26.74
2018-07-04T08:49:39.812Z,25.15
2018-07-04T08:52:19.332Z,27.39
2018-07-04T08:54:58.837Z,25.90
2018-07-04T08:57:38.342Z,26.07
2018-07-04T09:00:17.984Z,25.61
2018-07-04T09:02:57.516Z,25.38
2018-07-04T09:05:36.943Z,27.89
2018-07-04T09:08:16.420Z,29.54
2018-07-04T09:10:56.093Z,29.40
2018-07-04T09:13:35.717Z,29.71
2018-07-04T09:16:15.157Z,28.89
2018-07-04T09:18:54.677Z,29.31
2018-07-04T09:21:34.204Z,28.28
2018-07-04T09:24:13.745Z,29.98
2018-07-04T09:26:53.204Z,29.18
2018-07-04T09:29:32.801Z,27.86
2018-07-04T09:32:12.267Z,29.22
2018-07-04T09:34:51.969Z,29.73
2018-07-04T09:37:31.555Z,29.46
2018-07-04T09:40:11.141Z,28.98
2018-07-04T09:42:50.760Z,28.47
2018-07-04T09:45:30.325Z,26.74
2018-07-04T09:48:09.869Z,27.83
2018-07-04T09:50:49.513Z,28.42
2018-07-04T09:53:29.057Z,28.78
2018-07-04T09:56:08.705Z,29.06
2018-07-04T09:58:48.284Z,28.50
2018-07-04T10:01:27.575Z,29.55
2018-07-04T10:04:07.221Z,30.71
2018-07-04T10:06:46.854Z,32.05
2018-07-04T10:09:26.502Z,29.27
2018-07-04T10:12:06.043Z,30.00
2018-07-04T10:14:45.639Z,29.32
2018-07-04T10:17:25.248Z,30.99
2018-07-04T10:20:04.724Z,30.19
2018-07-04T10:22:44.061Z,29.93
2018-07-04T10:25:23.833Z,28.17
2018-07-04T10:28:03.512Z,28.75
2018-07-04T10:30:43.009Z,28.73
2018-07-04T10:33:22.694Z,27.67
2018-07-04T10:36:02.085Z,28.54
2018-07-04T10:38:41.652Z,26.76
2018-07-04T10:41:21.268Z,28.73
2018-07-04T10:44:00.917Z,27.66
2018-07-04T10:46:40.609Z,27.24
2018-07-04T10:49:20.105Z,27.28
2018-07-04T10:51:59.697Z,26.03
2018-07-04T10:54:39.620Z,27.45
2018-07-04T10:57:19.169Z,26.82
2018-07-04T10:59:58.511Z,26.58
2018-07-04T11:02:37.968Z,24.50
2018-07-04T11:05:17.365Z,24.60
2018-07-04T11:07:57.057Z,24.89
2018-07-04T11:10:36.653Z,25.54
2018-07-04T11:13:16.513Z,25.10
2018-07-04T11:15:55.952Z,25.08
2018-07-04T11:18:35.465Z,24.51
2018-07-04T11:21:15.109Z,23.70
2018-07-04T11:23:54.685Z,24.20
2018-07-04T11:26:34.041Z,24.40
2018-07-04T11:29:13.524Z,24.94
2018-07-04T11:31:52.948Z,24.36
2018-07-04T11:34:32.404Z,24.23
2018-07-04T11:37:12.032Z,24.21
2018-07-04T11:39:51.617Z,23.86
2018-07-04T11:42:31.141Z,25.10
2018-07-04T11:45:10.807Z,24.17
2018-07-04T11:47:37.841Z,23.86
2018-07-04T11:50:04.888Z,24.53
2018-07-04T11:52:31.943Z,24.10
2018-07-04T11:54:59.012Z,24.62
2018-07-04T11:57:26.061Z,25.66
2018-07-04T11:59:53.107Z,23.57
2018-07-04T12:02:20.148Z,23.46
2018-07-04T12:04:59.629Z,23.16
2018-07-04T12:07:26.664Z,23.74
2018-07-04T12:09:53.712Z,24.11
2018-07-04T12:12:20.761Z,23.71
2018-07-04T12:14:47.809Z,22.90
2018-07-04T12:17:14.841Z,22.20
2018-07-04T12:19:41.909Z,23.33
2018-07-04T12:22:08.985Z,23.73
2018-07-04T12:24:36.048Z,23.34
2018-07-04T12:27:03.181Z,22.65
2018-07-04T12:29:30.164Z,22.77
2018-07-04T12:31:57.287Z,23.49
2018-07-04T12:34:24.276Z,22.46
2018-07-04T12:36:51.304Z,21.56
2018-07-04T12:39:18.348Z,21.15
2018-07-04T12:41:45.411Z,23.12
2018-07-04T12:44:12.431Z,22.76
2018-07-04T12:46:39.471Z,23.83
2018-07-04T12:49:06.552Z,22.21
2018-07-04T12:51:34.817Z,23.18
2018-07-04T12:54:07.379Z,22.00
2018-07-04T12:56:46.937Z,21.65
2018-07-04T12:59:26.446Z,21.26
2018-07-04T13:02:05.836Z,22.07
2018-07-04T13:04:45.752Z,21.85
2018-07-04T13:07:25.809Z,22.61
2018-07-04T13:10:05.386Z,21.94
2018-07-04T13:12:44.832Z,21.18
2018-07-04T13:15:24.545Z,21.77
2018-07-04T13:18:04.052Z,21.40
2018-07-04T13:20:43.681Z,22.18
2018-07-04T13:23:23.199Z,21.62
2018-07-04T13:26:02.616Z,20.80
2018-07-04T13:28:42.703Z,21.24
2018-07-04T13:31:22.180Z,20.81
2018-07-04T13:34:01.752Z,21.39
2018-07-04T13:36:41.144Z,20.40
2018-07-04T13:39:20.777Z,21.73
2018-07-04T13:42:00.436Z,21.13
2018-07-04T13:44:40.091Z,21.44
2018-07-04T13:47:19.672Z,19.62
2018-07-04T13:49:59.205Z,21.09
2018-07-04T13:52:38.745Z,21.46
2018-07-04T13:55:18.376Z,22.33
2018-07-04T13:57:58.012Z,21.93
2018-07-04T14:00:37.564Z,21.94
2018-07-04T14:03:17.165Z,21.68
2018-07-04T14:05:56.548Z,21.67
2018-07-04T14:08:36.061Z,22.21
2018-07-04T14:11:15.707Z,22.78
2018-07-04T14:13:55.308Z,22.89
2018-07-04T14:16:35.672Z,22.41
2018-07-04T14:19:15.272Z,23.11
2018-07-04T14:21:54.880Z,22.82
2018-07-04T14:24:34.285Z,22.86
2018-07-04T14:27:13.924Z,23.20
2018-07-04T14:29:53.300Z,22.56
2018-07-04T14:32:32.697Z,22.36
2018-07-04T14:35:12.025Z,23.06
2018-07-04T14:37:51.621Z,22.16
2018-07-04T14:40:31.153Z,22.45
2018-07-04T14:43:10.685Z,22.06
2018-07-04T14:45:50.362Z,22.42
2018-07-04T14:48:29.886Z,22.80
2018-07-04T14:51:09.345Z,23.42
2018-07-04T14:53:48.906Z,23.38
2018-07-04T14:56:28.521Z,23.54
2018-07-04T14:59:08.051Z,23.42
2018-07-04T15:01:47.583Z,23.86
2018-07-04T15:04:27.090Z,23.50
2018-07-04T15:07:06.525Z,22.19
2018-07-04T15:09:46.042Z,22.39
2018-07-04T15:12:25.521Z,23.19
2018-07-04T15:15:05.176Z,22.72
2018-07-04T15:17:44.813Z,22.75
2018-07-04T15:20:24.816Z,22.02
2018-07-04T15:23:04.384Z,23.08
2018-07-04T15:25:44.556Z,22.45
2018-07-04T15:28:24.033Z,22.87
2018-07-04T15:31:03.706Z,22.43
2018-07-04T15:33:43.179Z,22.43
2018-07-04T15:36:22.850Z,22.40
2018-07-04T15:39:02.442Z,22.72
2018-07-04T15:41:41.937Z,22.48
2018-07-04T15:44:21.524Z,22.73
2018-07-04T15:47:01.035Z,24.33
2018-07-04T15:49:40.605Z,22.83
2018-07-04T15:52:20.120Z,23.24
2018-07-04T15:54:59.585Z,23.00
2018-07-04T15:57:39.125Z,22.45
2018-07-04T16:00:18.507Z,23.32
2018-07-04T16:02:58.132Z,22.54
2018-07-04T16:05:37.818Z,22.68
2018-07-04T16:08:17.329Z,22.52
2018-07-04T16:10:57.039Z,22.61
2018-07-04T16:13:36.605Z,23.00
2018-07-04T16:16:16.872Z,22.93
2018-07-04T16:18:56.460Z,23.01
2018-07-04T16:21:36.041Z,23.41
2018-07-04T16:24:16.021Z,23.02
2018-07-04T16:26:55.528Z,23.37
2018-07-04T16:29:34.936Z,23.15
2018-07-04T16:32:14.332Z,23.76
2018-07-04T16:34:54.084Z,23.67
2018-07-04T16:37:33.551Z,22.71
2018-07-04T16:40:13.008Z,22.62
2018-07-04T16:42:52.717Z,22.48
2018-07-04T16:45:32.212Z,23.46
2018-07-04T16:48:12.014Z,23.61
2018-07-04T16:50:51.504Z,24.02
2018-07-04T16:53:31.125Z,24.33
2018-07-04T16:56:10.720Z,24.34
2018-07-04T16:58:50.290Z,24.91
2018-07-04T17:01:29.784Z,24.48
2018-07-04T17:04:09.450Z,24.32
2018-07-04T17:06:49.071Z,24.79
2018-07-04T17:09:28.756Z,24.96
2018-07-04T17:12:08.426Z,25.05
2018-07-04T17:14:47.961Z,25.60
2018-07-04T17:17:27.633Z,24.88
2018-07-04T17:20:07.408Z,24.87
2018-07-04T17:22:46.899Z,24.93
2018-07-04T17:25:26.490Z,25.77
2018-07-04T17:28:06.000Z,24.43
2018-07-04T17:30:45.352Z,25.43
2018-07-04T17:33:24.817Z,24.96
2018-07-04T17:36:04.230Z,24.60
2018-07-04T17:38:43.837Z,24.45
2018-07-04T17:41:23.324Z,25.38
2018-07-04T17:44:02.860Z,26.35
2018-07-04T17:46:42.364Z,27.02
2018-07-04T17:49:21.928Z,27.64
2018-07-04T17:52:02.468Z,29.13
2018-07-04T17:54:41.872Z,28.96
2018-07-04T17:57:21.569Z,29.16
2018-07-04T18:00:01.285Z,30.10
2018-07-04T18:02:40.701Z,29.33
2018-07-04T18:05:20.356Z,29.44
2018-07-04T18:07:59.994Z,30.70
2018-07-04T18:10:39.536Z,30.47
2018-07-04T18:13:19.232Z,30.19
2018-07-04T18:15:58.854Z,30.75
2018-07-04T18:18:38.509Z,31.50
2018-07-04T18:21:25.073Z,31.94
2018-07-04T18:24:05.781Z,31.40
2018-07-04T18:26:45.284Z,31.62
2018-07-04T18:29:24.987Z,32.64
2018-07-04T18:32:05.016Z,32.05
2018-07-04T18:34:44.396Z,32.46
2018-07-04T18:37:24.000Z,33.32
2018-07-04T18:40:03.493Z,33.74
2018-07-04T18:42:42.949Z,32.95
2018-07-04T18:45:22.661Z,33.37
2018-07-04T18:48:02.393Z,33.73
2018-07-04T18:50:42.045Z,34.62
2018-07-04T18:53:21.518Z,33.68
2018-07-04T18:56:01.132Z,33.74
2018-07-04T18:58:40.724Z,33.89
2018-07-04T19:01:20.144Z,34.20
2018-07-04T19:03:59.693Z,34.37
2018-07-04T19:06:39.681Z,34.30
2018-07-04T19:09:19.219Z,35.07
2018-07-04T19:11:58.748Z,35.66
2018-07-04T19:14:38.269Z,35.13
2018-07-04T19:17:17.995Z,35.37
2018-07-04T19:19:57.440Z,36.18
2018-07-04T19:22:36.929Z,35.64
2018-07-04T19:25:16.365Z,36.44
2018-07-04T19:27:55.925Z,36.18
2018-07-04T19:30:35.333Z,36.78
2018-07-04T19:33:15.072Z,37.19
2018-07-04T19:35:54.553Z,36.71
2018-07-04T19:38:34.141Z,37.51
2018-07-04T19:41:13.848Z,36.39
2018-07-04T19:43:53.593Z,37.36
2018-07-04T19:46:33.006Z,37.82
2018-07-04T19:49:12.553Z,37.33
2018-07-04T19:51:52.197Z,38.48
2018-07-04T19:54:31.840Z,39.37
2018-07-04T19:57:11.493Z,40.08
2018-07-04T19:59:50.988Z,40.61
2018-07-04T20:02:30.684Z,41.11
2018-07-04T20:05:10.257Z,43.89
2018-07-04T20:07:49.964Z,45.91
2018-07-04T20:10:29.486Z,47.47
2018-07-04T20:13:09.137Z,48.58
2018-07-04T20:15:48.661Z,49.47
2018-07-04T20:18:28.292Z,50.32
2018-07-04T20:21:07.963Z,49.80
2018-07-04T20:23:47.555Z,51.21
2018-07-04T20:26:26.937Z,51.26
2018-07-04T20:29:06.629Z,53.06
2018-07-04T20:31:46.146Z,52.76
2018-07-04T20:34:25.619Z,53.84
2018-07-04T20:37:05.209Z,53.65
2018-07-04T20:39:44.760Z,53.96
2018-07-04T20:42:24.442Z,54.23
2018-07-04T20:45:03.981Z,54.64
2018-07-04T20:47:43.576Z,54.44
2018-07-04T20:50:23.024Z,55.03
2018-07-04T20:53:02.707Z,54.54
2018-07-04T20:55:42.397Z,55.35
2018-07-04T20:58:21.886Z,56.79
2018-07-04T21:01:01.402Z,56.17
2018-07-04T21:03:40.847Z,57.07
2018-07-04T21:06:20.433Z,56.12
2018-07-04T21:08:59.901Z,57.07
2018-07-04T21:11:39.605Z,56.56
2018-07-04T21:14:19.194Z,56.59
2018-07-04T21:16:58.893Z,57.13
2018-07-04T21:19:38.461Z,57.81
2018-07-04T21:22:17.880Z,57.71
2018-07-04T21:24:57.275Z,57.82
2018-07-04T21:27:36.883Z,57.36
2018-07-04T21:30:16.253Z,57.74
2018-07-04T21:32:55.736Z,57.23
2018-07-04T21:35:35.397Z,58.12
2018-07-04T21:38:14.936Z,58.50
2018-07-04T21:40:54.551Z,58.23
2018-07-04T21:43:34.071Z,58.74
2018-07-04T21:46:13.726Z,60.30
2018-07-04T21:48:53.257Z,59.79
2018-07-04T21:51:32.895Z,59.55
2018-07-04T21:54:12.528Z,60.63
2018-07-04T21:56:52.188Z,61.06
2018-07-04T21:59:32.054Z,61.42
2018-07-04T22:02:11.592Z,61.06
2018-07-04T22:04:51.247Z,61.42
2018-07-04T22:07:30.807Z,62.43
2018-07-04T22:10:10.305Z,63.25
2018-07-04T22:12:49.841Z,64.39
2018-07-04T22:15:29.456Z,63.70
2018-07-04T22:18:09.108Z,63.45
2018-07-04T22:20:48.633Z,64.64
2018-07-04T22:23:28.215Z,64.35
2018-07-04T22:26:07.806Z,64.93
2018-07-04T22:28:47.233Z,63.96
2018-07-04T22:31:26.749Z,64.81
2018-07-04T22:34:06.167Z,65.87
2018-07-04T22:36:45.644Z,65.72
2018-07-04T22:39:25.329Z,65.06
2018-07-04T22:42:04.964Z,64.76
2018-07-04T22:44:44.622Z,65.15
2018-07-04T22:47:24.156Z,65.54
2018-07-04T22:50:03.816Z,65.31
2018-07-04T22:52:43.404Z,65.50
2018-07-04T22:55:23.013Z,67.47
2018-07-04T22:58:02.665Z,67.32
2018-07-04T23:00:42.272Z,67.27
2018-07-04T23:03:21.672Z,67.18
2018-07-04T23:06:01.293Z,67.64
2018-07-04T23:08:41.589Z,67.51
2018-07-04T23:11:21.244Z,67.44
2018-07-04T23:14:00.891Z,67.68
2018-07-04T23:16:40.533Z,67.82
2018-07-04T23:19:20.181Z,68.59
2018-07-04T23:21:59.772Z,68.00
2018-07-04T23:24:39.336Z,68.97
2018-07-04T23:27:18.942Z,68.53
2018-07-04T23:29:58.588Z,68.16
2018-07-04T23:32:37.945Z,67.82
2018-07-04T23:35:17.261Z,68.31
2018-07-04T23:37:57.444Z,68.33
2018-07-04T23:40:37.013Z,69.35
2018-07-04T23:43:16.504Z,69.15
2018-07-04T23:45:56.078Z,69.36
2018-07-04T23:48:35.546Z,69.78
2018-07-04T23:51:15.037Z,69.70
2018-07-04T23:53:54.545Z,69.46
2018-07-04T23:56:33.944Z,70.71
2018-07-04T23:59:13.503Z,70.73
